createdAt,value
2018-06-14T00:01:59.203Z,2.30
2018-06-14T00:04:27.742Z,2.83
2018-06-14T00:06:56.325Z,2.60
2018-06-14T00:09:24.602Z,2.80
2018-06-14T00:11:52.958Z,2.50
2018-06-14T00:14:21.193Z,2.70
2018-06-14T00:16:49.530Z,3.13
2018-06-14T00:19:17.803Z,2.87
2018-06-14T00:21:45.799Z,2.60
2018-06-14T00:24:14.159Z,2.70
2018-06-14T00:26:42.586Z,3.10
2018-06-14T00:29:11.279Z,3.10
2018-06-14T00:31:39.490Z,3.10
2018-06-14T00:34:07.714Z,2.80
2018-06-14T00:36:35.946Z,2.70
2018-06-14T00:39:06.050Z,2.67
2018-06-14T00:41:34.429Z,2.50
2018-06-14T00:44:03.858Z,2.93
2018-06-14T00:46:32.852Z,2.70
2018-06-14T00:49:01.148Z,3.00
2018-06-14T00:51:29.360Z,2.87
2018-06-14T00:53:57.682Z,2.90
2018-06-14T00:56:26.646Z,2.53
2018-06-14T00:58:55.074Z,2.73
2018-06-14T01:01:23.349Z,2.53
2018-06-14T01:03:51.661Z,2.77
2018-06-14T01:06:20.219Z,2.47
2018-06-14T01:08:50.321Z,3.00
2018-06-14T01:11:19.161Z,2.77
2018-06-14T01:13:47.459Z,2.70
2018-06-14T01:16:15.737Z,2.93
2018-06-14T01:18:44.059Z,3.10
2018-06-14T01:21:12.642Z,2.90
2018-06-14T01:23:42.129Z,3.30
2018-06-14T01:26:11.275Z,3.20
2018-06-14T01:28:39.540Z,2.73
2018-06-14T01:31:07.753Z,2.70
2018-06-14T01:33:36.029Z,2.63
2018-06-14T01:36:04.854Z,3.17
2018-06-14T01:38:33.706Z,3.43
2018-06-14T01:41:03.320Z,3.00
2018-06-14T01:43:31.529Z,3.20
2018-06-14T01:45:59.801Z,3.03
2018-06-14T01:48:28.038Z,2.77
2018-06-14T01:50:56.698Z,3.27
2018-06-14T01:53:25.190Z,2.90
2018-06-14T01:55:53.463Z,3.00
2018-06-14T01:58:21.829Z,2.80
2018-06-14T02:00:50.305Z,2.93
2018-06-14T02:03:18.764Z,3.27
2018-06-14T02:05:47.276Z,3.03
2018-06-14T02:08:15.562Z,3.10
2018-06-14T02:10:43.836Z,2.97
2018-06-14T02:13:12.206Z,3.20
2018-06-14T02:15:40.535Z,3.20
2018-06-14T02:18:17.509Z,3.00
2018-06-14T02:20:57.537Z,3.80
2018-06-14T02:23:32.236Z,2.97
2018-06-14T02:26:22.289Z,3.20
2018-06-14T02:29:13.214Z,3.43
2018-06-14T02:31:48.220Z,2.83
2018-06-14T02:34:24.709Z,3.03
2018-06-14T02:37:19.774Z,2.90
2018-06-14T02:39:48.121Z,3.83
2018-06-14T02:42:16.367Z,3.87
2018-06-14T02:44:44.719Z,3.00
2018-06-14T02:47:13.029Z,3.83
2018-06-14T02:49:41.993Z,3.90
2018-06-14T02:52:10.315Z,3.60
2018-06-14T02:54:38.642Z,4.00
2018-06-14T02:57:06.951Z,4.20
2018-06-14T02:59:35.191Z,4.47
2018-06-14T03:02:03.631Z,4.00
2018-06-14T03:04:32.151Z,3.97
2018-06-14T03:07:00.427Z,4.00
2018-06-14T03:09:28.722Z,4.60
2018-06-14T03:11:57.237Z,4.43
2018-06-14T03:14:26.384Z,3.53
2018-06-14T03:16:54.717Z,4.30
2018-06-14T03:19:22.972Z,3.80
2018-06-14T03:21:51.251Z,3.53
2018-06-14T03:24:19.894Z,4.17
2018-06-14T03:26:48.411Z,3.93
2018-06-14T03:29:33.931Z,4.27
2018-06-14T03:32:16.830Z,4.07
2018-06-14T03:34:59.951Z,4.00
2018-06-14T03:37:28.194Z,4.53
2018-06-14T03:39:56.590Z,4.07
2018-06-14T03:42:25.041Z,4.10
2018-06-14T03:44:53.329Z,4.60
2018-06-14T03:47:21.562Z,4.80
2018-06-14T03:49:49.889Z,4.93
2018-06-14T03:52:19.910Z,4.33
2018-06-14T03:54:48.178Z,4.57
2018-06-14T03:57:16.428Z,4.50
2018-06-14T03:59:44.660Z,5.20
2018-06-14T04:02:12.886Z,4.40
2018-06-14T04:04:41.281Z,4.10
2018-06-14T04:07:09.558Z,4.33
2018-06-14T04:09:37.934Z,4.47
2018-06-14T04:12:06.183Z,5.17
2018-06-14T04:14:35.247Z,4.70
2018-06-14T04:17:04.143Z,4.67
2018-06-14T04:19:32.402Z,4.10
2018-06-14T04:22:00.615Z,4.80
2018-06-14T04:24:28.834Z,4.70
2018-06-14T04:26:58.007Z,4.43
2018-06-14T04:29:26.779Z,4.03
2018-06-14T04:32:14.238Z,4.30
2018-06-14T04:34:43.031Z,4.40
2018-06-14T04:37:11.836Z,4.50
2018-06-14T04:39:40.378Z,4.23
2018-06-14T04:42:08.612Z,4.40
2018-06-14T04:44:36.849Z,4.13
2018-06-14T04:47:05.257Z,4.10
2018-06-14T04:49:33.882Z,4.30
2018-06-14T04:52:02.090Z,3.87
2018-06-14T04:54:30.291Z,4.07
2018-06-14T04:56:59.408Z,4.40
2018-06-14T04:59:28.086Z,4.70
2018-06-14T05:01:56.602Z,4.30
2018-06-14T05:04:24.834Z,3.37
2018-06-14T05:06:53.048Z,4.37
2018-06-14T05:09:21.346Z,3.83
2018-06-14T05:11:49.649Z,4.73
2018-06-14T05:14:18.441Z,4.40
2018-06-14T05:16:46.682Z,4.13
2018-06-14T05:19:14.915Z,5.13
2018-06-14T05:21:43.157Z,4.17
2018-06-14T05:24:12.551Z,4.37
2018-06-14T05:26:41.557Z,4.53
2018-06-14T05:29:11.007Z,4.40
2018-06-14T05:31:39.581Z,4.63
2018-06-14T05:34:09.096Z,4.20
2018-06-14T05:36:37.343Z,4.20
2018-06-14T05:39:07.741Z,4.60
2018-06-14T05:41:36.012Z,4.73
2018-06-14T05:44:04.310Z,4.60
2018-06-14T05:46:32.589Z,4.80
2018-06-14T05:49:00.823Z,5.33
2018-06-14T05:51:29.106Z,4.97
2018-06-14T05:53:57.482Z,4.83
2018-06-14T05:56:26.379Z,4.60
2018-06-14T05:58:54.774Z,4.47
2018-06-14T06:01:23.010Z,4.80
2018-06-14T06:03:51.276Z,4.77
2018-06-14T06:06:19.784Z,4.90
2018-06-14T06:08:48.067Z,4.60
2018-06-14T06:11:16.650Z,4.80
2018-06-14T06:13:45.675Z,4.70
2018-06-14T06:16:13.948Z,5.10
2018-06-14T06:18:42.670Z,5.20
2018-06-14T06:21:10.904Z,5.37
2018-06-14T06:23:39.142Z,5.13
2018-06-14T06:26:07.399Z,4.40
2018-06-14T06:28:35.616Z,4.87
2018-06-14T06:31:04.054Z,4.60
2018-06-14T06:33:32.258Z,4.27
2018-06-14T06:36:00.395Z,4.90
2018-06-14T06:38:28.659Z,4.93
2018-06-14T06:40:57.718Z,5.40
2018-06-14T06:43:26.366Z,4.67
2018-06-14T06:45:54.622Z,4.67
2018-06-14T06:48:22.908Z,5.20
2018-06-14T06:50:51.190Z,4.50
2018-06-14T06:53:20.264Z,4.40
2018-06-14T06:55:48.529Z,4.60
2018-06-14T06:58:16.819Z,4.57
2018-06-14T07:00:45.083Z,4.83
2018-06-14T07:03:13.306Z,4.40
2018-06-14T07:05:42.142Z,4.83
2018-06-14T07:08:10.451Z,4.50
2018-06-14T07:10:38.691Z,5.17
2018-06-14T07:13:07.466Z,5.00
2018-06-14T07:15:35.683Z,4.73
2018-06-14T07:18:04.091Z,4.60
2018-06-14T07:20:32.363Z,4.77
2018-06-14T07:23:00.692Z,4.70
2018-06-14T07:25:29.079Z,4.30
2018-06-14T07:27:58.004Z,4.37
2018-06-14T07:30:26.246Z,4.03
2018-06-14T07:32:54.471Z,4.20
2018-06-14T07:35:22.710Z,4.33
2018-06-14T07:37:50.947Z,4.27
2018-06-14T07:40:19.389Z,3.87
2018-06-14T07:42:49.590Z,4.00
2018-06-14T07:45:17.843Z,3.87
2018-06-14T07:47:48.359Z,3.33
2018-06-14T07:50:16.574Z,3.90
2018-06-14T07:52:44.787Z,3.60
2018-06-14T07:55:13.052Z,3.17
2018-06-14T07:57:41.886Z,3.57
2018-06-14T08:00:10.423Z,2.87
2018-06-14T08:02:38.603Z,2.63
2018-06-14T08:05:06.861Z,2.80
2018-06-14T08:07:35.287Z,2.30
2018-06-14T08:10:03.718Z,2.23
2018-06-14T08:12:32.235Z,2.60
2018-06-14T08:15:00.384Z,2.13
2018-06-14T08:17:28.625Z,2.40
2018-06-14T08:19:57.906Z,2.10
2018-06-14T08:22:26.216Z,2.33
2018-06-14T08:24:54.467Z,2.33
2018-06-14T08:27:22.730Z,2.00
2018-06-14T08:29:50.965Z,2.50
2018-06-14T08:32:19.394Z,2.30
2018-06-14T08:34:48.225Z,1.70
2018-06-14T08:37:16.580Z,2.17
2018-06-14T08:39:44.966Z,2.07
2018-06-14T08:42:13.254Z,1.80
2018-06-14T08:44:42.495Z,2.70
2018-06-14T08:47:12.042Z,2.80
2018-06-14T08:49:40.522Z,2.40
2018-06-14T08:52:08.750Z,2.47
2018-06-14T08:54:36.977Z,3.13
2018-06-14T08:57:06.112Z,2.90
2018-06-14T08:59:34.567Z,2.80
2018-06-14T09:02:03.337Z,2.20
2018-06-14T09:04:31.575Z,2.90
2018-06-14T09:06:59.819Z,2.77
2018-06-14T09:09:27.792Z,2.43
2018-06-14T09:11:56.747Z,2.37
2018-06-14T09:14:24.975Z,3.03
2018-06-14T09:16:53.194Z,3.17
2018-06-14T09:19:21.423Z,3.00
2018-06-14T09:21:49.926Z,2.73
2018-06-14T09:24:18.254Z,2.53
2018-06-14T09:26:46.526Z,2.77
2018-06-14T09:29:15.092Z,2.40
2018-06-14T09:31:43.327Z,2.57
2018-06-14T09:34:11.760Z,2.20
2018-06-14T09:36:40.005Z,2.37
2018-06-14T09:39:09.302Z,2.30
2018-06-14T09:41:37.542Z,2.70
2018-06-14T09:44:06.356Z,2.90
2018-06-14T09:46:34.731Z,2.63
2018-06-14T09:49:08.422Z,2.57
2018-06-14T09:51:36.770Z,2.40
2018-06-14T09:54:05.559Z,2.87
2018-06-14T09:56:34.002Z,2.80
2018-06-14T09:59:02.266Z,3.10
2018-06-14T10:01:30.512Z,2.53
2018-06-14T10:03:58.818Z,2.50
2018-06-14T10:06:27.228Z,2.87
2018-06-14T10:08:56.035Z,2.60
2018-06-14T10:11:24.365Z,3.10
2018-06-14T10:13:52.651Z,2.67
2018-06-14T10:16:21.598Z,2.60
2018-06-14T10:18:49.966Z,2.80
2018-06-14T10:21:18.274Z,3.17
2018-06-14T10:23:46.571Z,2.90
2018-06-14T10:26:14.883Z,3.13
2018-06-14T10:28:43.220Z,2.60
2018-06-14T10:31:11.391Z,3.20
2018-06-14T10:33:39.652Z,2.50
2018-06-14T10:36:08.131Z,2.90
2018-06-14T10:38:36.410Z,3.20
2018-06-14T10:41:05.554Z,2.87
2018-06-14T10:43:34.022Z,2.73
2018-06-14T10:46:02.318Z,2.87
2018-06-14T10:48:30.656Z,2.83
2018-06-14T10:50:59.046Z,2.70
2018-06-14T10:53:27.730Z,2.97
2018-06-14T10:55:56.019Z,2.57
2018-06-14T10:58:24.239Z,2.97
2018-06-14T11:00:52.532Z,2.57
2018-06-14T11:03:20.844Z,2.70
2018-06-14T11:05:49.221Z,2.90
2018-06-14T11:08:18.316Z,2.60
2018-06-14T11:10:46.609Z,2.93
2018-06-14T11:13:14.908Z,2.80
2018-06-14T11:15:43.146Z,2.70
2018-06-14T11:18:11.536Z,3.03
2018-06-14T11:20:39.896Z,2.47
2018-06-14T11:23:08.211Z,2.63
2018-06-14T11:25:36.454Z,2.60
2018-06-14T11:28:05.662Z,3.20
2018-06-14T11:30:34.532Z,2.40
2018-06-14T11:33:02.837Z,2.97
2018-06-14T11:35:31.514Z,3.43
2018-06-14T11:37:59.776Z,2.23
2018-06-14T11:40:28.279Z,2.20
2018-06-14T11:42:56.928Z,2.30
2018-06-14T11:45:25.608Z,2.53
2018-06-14T11:47:53.894Z,2.57
2018-06-14T11:50:22.147Z,3.27
2018-06-14T11:52:50.475Z,3.40
2018-06-14T11:55:19.000Z,5.50
2018-06-14T11:57:47.281Z,3.43
2018-06-14T12:00:15.539Z,3.20
2018-06-14T12:02:43.755Z,3.47
2018-06-14T12:05:12.284Z,2.87
2018-06-14T12:07:40.751Z,3.73
2018-06-14T12:10:09.358Z,4.00
2018-06-14T12:12:37.624Z,3.27
2018-06-14T12:15:06.304Z,2.90
2018-06-14T12:17:35.046Z,3.77
2018-06-14T12:20:04.678Z,3.10
2018-06-14T12:22:33.050Z,2.83
2018-06-14T12:25:01.326Z,2.73
2018-06-14T12:27:29.571Z,2.93
2018-06-14T12:29:58.531Z,3.20
2018-06-14T12:32:27.614Z,2.77
2018-06-14T12:34:55.927Z,2.47
2018-06-14T12:37:24.185Z,2.93
2018-06-14T12:39:52.429Z,2.47
2018-06-14T12:42:21.594Z,3.17
2018-06-14T12:44:50.075Z,2.97
2018-06-14T12:47:18.656Z,2.87
2018-06-14T12:49:46.915Z,2.93
2018-06-14T12:52:15.276Z,2.90
2018-06-14T12:54:43.535Z,2.90
2018-06-14T12:57:12.125Z,2.60
2018-06-14T12:59:40.563Z,2.17
2018-06-14T13:02:08.822Z,2.13
2018-06-14T13:04:37.110Z,2.20
2018-06-14T13:07:05.569Z,2.23
2018-06-14T13:09:34.003Z,2.10
2018-06-14T13:12:02.353Z,2.40
2018-06-14T13:14:30.747Z,2.27
2018-06-14T13:16:59.026Z,2.87
2018-06-14T13:19:27.382Z,2.20
2018-06-14T13:21:55.665Z,3.20
2018-06-14T13:24:23.893Z,2.50
2018-06-14T13:26:52.149Z,2.37
2018-06-14T13:29:20.572Z,2.57
2018-06-14T13:31:49.346Z,3.00
2018-06-14T13:34:17.593Z,2.17
2018-06-14T13:36:45.875Z,2.30
2018-06-14T13:39:14.178Z,2.20
2018-06-14T13:41:42.554Z,2.63
2018-06-14T13:44:10.855Z,2.23
2018-06-14T13:46:40.975Z,4.40
2018-06-14T13:49:09.981Z,2.50
2018-06-14T13:51:38.194Z,2.87
2018-06-14T13:54:06.447Z,2.30
2018-06-14T13:56:35.497Z,2.93
2018-06-14T13:59:04.550Z,2.90
2018-06-14T14:01:33.427Z,2.53
2018-06-14T14:04:02.112Z,2.40
2018-06-14T14:06:34.201Z,2.30
2018-06-14T14:09:02.475Z,2.47
2018-06-14T14:11:30.743Z,2.93
2018-06-14T14:13:59.009Z,2.60
2018-06-14T14:16:27.926Z,2.87
2018-06-14T14:18:56.595Z,2.60
2018-06-14T14:21:25.227Z,2.50
2018-06-14T14:23:53.478Z,2.33
2018-06-14T14:26:21.883Z,2.90
2018-06-14T14:28:50.572Z,2.70
2018-06-14T14:31:18.912Z,2.70
2018-06-14T14:33:47.137Z,2.30
2018-06-14T14:36:15.514Z,2.40
2018-06-14T14:38:43.866Z,2.70
2018-06-14T14:41:12.722Z,3.07
2018-06-14T14:43:40.993Z,2.47
2018-06-14T14:46:09.583Z,2.50
2018-06-14T14:48:37.844Z,2.10
2018-06-14T14:51:06.111Z,2.70
2018-06-14T14:53:34.330Z,2.30
2018-06-14T14:56:02.748Z,2.20
2018-06-14T14:58:31.013Z,2.60
2018-06-14T15:00:59.246Z,3.17
2018-06-14T15:03:27.746Z,3.00
2018-06-14T15:05:56.181Z,2.53
2018-06-14T15:08:24.508Z,2.40
2018-06-14T15:10:52.914Z,2.67
2018-06-14T15:13:21.172Z,3.10
2018-06-14T15:15:49.686Z,2.40
2018-06-14T15:18:18.029Z,2.63
2018-06-14T15:20:46.414Z,2.90
2018-06-14T15:23:14.730Z,2.57
2018-06-14T15:25:43.138Z,3.33
2018-06-14T15:28:12.138Z,2.30
2018-06-14T15:30:40.954Z,2.70
2018-06-14T15:33:09.198Z,2.40
2018-06-14T15:35:37.428Z,2.70
2018-06-14T15:38:05.487Z,3.00
2018-06-14T15:40:34.392Z,2.37
2018-06-14T15:43:02.755Z,2.90
2018-06-14T15:45:31.179Z,3.70
2018-06-14T15:47:59.752Z,2.83
2018-06-14T15:50:28.556Z,2.70
2018-06-14T15:52:57.250Z,2.57
2018-06-14T15:55:40.651Z,2.67
2018-06-14T15:58:08.976Z,2.67
2018-06-14T16:00:37.236Z,3.20
2018-06-14T16:03:05.741Z,2.73
2018-06-14T16:05:34.168Z,2.90
2018-06-14T16:08:02.470Z,3.60
2018-06-14T16:10:30.686Z,3.10
2018-06-14T16:13:19.913Z,2.70
2018-06-14T16:15:50.070Z,2.77
2018-06-14T16:18:18.519Z,2.40
2018-06-14T16:20:47.771Z,2.80
2018-06-14T16:23:16.266Z,2.90
2018-06-14T16:25:44.773Z,3.10
2018-06-14T16:28:13.392Z,3.00
2018-06-14T16:30:41.890Z,2.80
2018-06-14T16:33:11.501Z,3.03
2018-06-14T16:35:39.750Z,3.30
2018-06-14T16:38:08.023Z,3.37
2018-06-14T16:40:36.712Z,3.23
2018-06-14T16:43:05.346Z,3.00
2018-06-14T16:45:33.718Z,2.90
2018-06-14T16:48:03.856Z,3.00
2018-06-14T16:50:32.294Z,2.30
2018-06-14T16:53:00.553Z,2.80
2018-06-14T16:55:28.810Z,2.90
2018-06-14T16:57:57.589Z,2.57
2018-06-14T17:00:25.870Z,2.53
2018-06-14T17:02:54.156Z,2.63
2018-06-14T17:05:22.383Z,2.73
2018-06-14T17:07:50.685Z,2.30
2018-06-14T17:10:18.971Z,2.10
2018-06-14T17:12:47.308Z,3.53
2018-06-14T17:15:16.629Z,3.00
2018-06-14T17:17:45.009Z,3.03
2018-06-14T17:20:13.757Z,2.57
2018-06-14T17:22:42.707Z,3.37
2018-06-14T17:25:11.145Z,2.70
2018-06-14T17:27:39.457Z,2.97
2018-06-14T17:30:08.011Z,2.70
2018-06-14T17:32:36.259Z,2.40
2018-06-14T17:35:05.002Z,2.57
2018-06-14T17:37:33.542Z,3.10
2018-06-14T17:40:01.798Z,2.60
2018-06-14T17:42:31.161Z,3.40
2018-06-14T17:44:59.534Z,2.83
2018-06-14T17:47:27.913Z,2.80
2018-06-14T17:49:56.375Z,2.70
2018-06-14T17:52:24.672Z,3.00
2018-06-14T17:54:53.114Z,2.63
2018-06-14T17:57:21.355Z,2.70
2018-06-14T17:59:49.858Z,2.90
2018-06-14T18:02:18.230Z,2.63
2018-06-14T18:04:46.558Z,2.80
2018-06-14T18:07:14.835Z,2.57
2018-06-14T18:09:43.144Z,2.80
2018-06-14T18:12:11.494Z,2.73
2018-06-14T18:14:39.834Z,3.00
2018-06-14T18:17:08.084Z,2.30
2018-06-14T18:19:36.614Z,2.70
2018-06-14T18:22:04.891Z,2.80
2018-06-14T18:24:34.154Z,2.80
2018-06-14T18:27:02.434Z,3.07
2018-06-14T18:29:30.718Z,2.37
2018-06-14T18:31:58.986Z,2.40
2018-06-14T18:34:27.507Z,2.57
2018-06-14T18:36:55.907Z,2.60
2018-06-14T18:39:24.182Z,2.43
2018-06-14T18:41:52.535Z,2.80
2018-06-14T18:44:20.990Z,2.53
2018-06-14T18:46:49.344Z,3.33
2018-06-14T18:49:17.593Z,2.87
2018-06-14T18:51:45.845Z,2.70
2018-06-14T18:54:14.065Z,2.80
2018-06-14T18:56:42.490Z,2.77
2018-06-14T18:59:10.751Z,2.60
2018-06-14T19:01:39.054Z,2.90
2018-06-14T19:04:07.386Z,2.43
2018-06-14T19:06:35.667Z,2.43
2018-06-14T19:09:06.405Z,2.90
2018-06-14T19:11:35.550Z,3.03
2018-06-14T19:14:04.263Z,3.03
2018-06-14T19:16:32.722Z,3.43
2018-06-14T19:19:01.345Z,5.97
2018-06-14T19:21:30.906Z,3.90
2018-06-14T19:23:59.142Z,3.07
2018-06-14T19:26:27.916Z,2.90
2018-06-14T19:28:57.298Z,2.90
2018-06-14T19:31:26.783Z,3.00
2018-06-14T19:33:55.012Z,3.00
2018-06-14T19:36:23.252Z,3.07
2018-06-14T19:38:51.556Z,3.00
2018-06-14T19:41:20.092Z,2.97
2018-06-14T19:43:48.397Z,2.50
2018-06-14T19:46:16.667Z,2.80
2018-06-14T19:48:45.097Z,2.23
2018-06-14T19:51:14.404Z,2.40
2018-06-14T19:53:43.386Z,2.50
2018-06-14T19:56:11.915Z,2.40
2018-06-14T19:58:40.375Z,2.60
2018-06-14T20:01:08.653Z,3.20
2018-06-14T20:03:37.195Z,2.43
2018-06-14T20:06:06.201Z,2.60
2018-06-14T20:08:34.630Z,3.20
2018-06-14T20:11:04.765Z,5.80
2018-06-14T20:13:33.886Z,4.03
2018-06-14T20:16:02.258Z,2.80
2018-06-14T20:18:30.632Z,3.37
2018-06-14T20:20:58.986Z,2.80
2018-06-14T20:23:27.423Z,2.97
2018-06-14T20:25:55.683Z,2.80
2018-06-14T20:28:23.678Z,2.60
2018-06-14T20:30:51.927Z,2.80
2018-06-14T20:33:20.830Z,2.50
2018-06-14T20:35:49.512Z,2.73
2018-06-14T20:38:17.522Z,2.70
2018-06-14T20:40:45.751Z,2.57
2018-06-14T20:43:14.207Z,2.80
2018-06-14T20:45:42.842Z,3.33
2018-06-14T20:48:11.807Z,2.90
2018-06-14T20:50:40.147Z,2.57
2018-06-14T20:53:08.661Z,2.67
2018-06-14T20:55:37.022Z,2.70
2018-06-14T20:58:05.536Z,3.43
2018-06-14T21:00:35.088Z,2.67
2018-06-14T21:03:04.282Z,3.03
2018-06-14T21:05:32.578Z,3.20
2018-06-14T21:08:00.819Z,3.00
2018-06-14T21:10:29.342Z,3.10
2018-06-14T21:12:57.823Z,3.03
2018-06-14T21:15:27.258Z,3.33
2018-06-14T21:17:55.592Z,3.00
2018-06-14T21:20:23.851Z,3.73
2018-06-14T21:22:52.094Z,3.87
2018-06-14T21:25:20.581Z,3.67
2018-06-14T21:27:48.975Z,4.10
2018-06-14T21:30:17.300Z,4.00
2018-06-14T21:32:45.563Z,4.13
2018-06-14T21:35:14.058Z,4.23
2018-06-14T21:37:42.353Z,3.80
2018-06-14T21:40:10.736Z,3.80
2018-06-14T21:42:39.133Z,4.03
2018-06-14T21:45:07.448Z,3.80
2018-06-14T21:47:36.787Z,4.10
2018-06-14T21:50:05.182Z,3.80
2018-06-14T21:52:33.538Z,3.37
2018-06-14T21:55:01.831Z,3.60
2018-06-14T21:57:30.115Z,3.47
2018-06-14T21:59:58.435Z,3.10
2018-06-14T22:02:26.761Z,3.80
2018-06-14T22:04:55.038Z,3.90
2018-06-14T22:07:23.342Z,3.17
2018-06-14T22:09:51.607Z,3.60
2018-06-14T22:12:20.223Z,3.70
2018-06-14T22:14:48.614Z,3.77
2018-06-14T22:17:16.883Z,3.40
2018-06-14T22:19:45.202Z,3.73
2018-06-14T22:22:13.615Z,3.80
2018-06-14T22:24:43.618Z,3.90
2018-06-14T22:27:12.677Z,3.77
2018-06-14T22:29:41.166Z,3.47
2018-06-14T22:32:09.421Z,4.37
2018-06-14T22:34:49.007Z,4.17
2018-06-14T22:37:17.090Z,3.80
2018-06-14T22:39:45.309Z,4.40
2018-06-14T22:42:13.696Z,4.00
2018-06-14T22:44:42.105Z,4.13
2018-06-14T22:47:10.375Z,4.37
2018-06-14T22:49:38.652Z,4.00
2018-06-14T22:53:12.613Z,3.83
2018-06-14T22:55:40.910Z,4.80
2018-06-14T22:58:09.158Z,6.63
2018-06-14T23:00:56.611Z,4.53
2018-06-14T23:03:25.095Z,4.73
2018-06-14T23:05:53.378Z,4.90
2018-06-14T23:08:21.670Z,4.20
2018-06-14T23:11:30.614Z,4.80
2018-06-14T23:13:58.934Z,4.57
2018-06-14T23:16:27.430Z,4.63
2018-06-14T23:18:56.487Z,4.97
2018-06-14T23:21:24.708Z,4.80
2018-06-14T23:23:52.945Z,5.37
2018-06-14T23:26:21.977Z,5.10
2018-06-14T23:28:51.311Z,5.13
2018-06-14T23:31:20.556Z,5.23
2018-06-14T23:33:49.245Z,4.93
2018-06-14T23:36:17.545Z,4.60
2018-06-14T23:38:45.784Z,5.50
2018-06-14T23:41:14.042Z,5.47
2018-06-14T23:43:42.661Z,6.40
2018-06-14T23:46:10.735Z,6.07
2018-06-14T23:48:39.039Z,5.40
2018-06-14T23:51:07.289Z,5.20
2018-06-14T23:53:35.925Z,4.80
2018-06-14T23:56:04.649Z,4.87
2018-06-14T23:58:32.947Z,5.63
